Terminal Aerodrome Forecast
Issued by NWS Pueblo, CO

Home | Current Version | Previous Version | Text Only | Print | Product List | Glossary On
Versions: 1 2 3 4 5 6 7 8 9 10 11 12 13 14 15 16 17 18 19 20 21 22 23 24 25 26
000
FTUS45 KPUB 300022 AAA
TAFPUB
TAF AMD
KPUB 300022Z 3000/3024 09013KT P6SM FEW070 SCT150
     FM301400 VRB05KT P6SM FEW010 BKN020
     FM301600 11009KT P6SM SCT030
     FM302200 12013KT P6SM VCTS SCT080CB BKN130=

USA.gov is the U.S. government's official web portal to all federal, state and local government web resources and services.